sensor_id;sensor_type;location;lat;lon;timestamp;P1;durP1;ratioP1;P2;durP2;ratioP2
1412;SDS011;701;52.526;13.408;2023-02-15T00:00:21;36.38;;;15.68;;
1412;SDS011;701;52.526;13.408;2023-02-15T00:02:47;36.73;;;15.20;;
1412;SDS011;701;52.526;13.408;2023-02-15T00:05:12;34.58;;;15.23;;
1412;SDS011;701;52.526;13.408;2023-02-15T00:07:38;33.70;;;15.17;;
1412;SDS011;701;52.526;13.408;2023-02-15T00:10:04;34.20;;;15.32;;
1412;SDS011;701;52.526;13.408;2023-02-15T00:12:31;39.20;;;15.33;;
1412;SDS011;701;52.526;13.408;2023-02-15T00:14:56;34.10;;;15.00;;
1412;SDS011;701;52.526;13.408;2023-02-15T00:17:22;39.63;;;15.48;;
1412;SDS011;701;52.526;13.408;2023-02-15T00:19:48;34.70;;;15.50;;
1412;SDS011;701;52.526;13.408;2023-02-15T00:22:14;43.03;;;16.55;;
1412;SDS011;701;52.526;13.408;2023-02-15T00:24:40;37.60;;;16.80;;
1412;SDS011;701;52.526;13.408;2023-02-15T00:27:05;39.47;;;16.40;;
1412;SDS011;701;52.526;13.408;2023-02-15T00:29:31;35.77;;;15.97;;
1412;SDS011;701;52.526;13.408;2023-02-15T00:31:57;38.08;;;16.17;;
1412;SDS011;701;52.526;13.408;2023-02-15T00:34:24;37.25;;;16.63;;
1412;SDS011;701;52.526;13.408;2023-02-15T00:36:51;45.13;;;17.17;;
1412;SDS011;701;52.526;13.408;2023-02-15T00:39:18;38.90;;;16.83;;
1412;SDS011;701;52.526;13.408;2023-02-15T00:41:45;39.03;;;16.95;;
1412;SDS011;701;52.526;13.408;2023-02-15T00:44:11;41.72;;;17.40;;
1412;SDS011;701;52.526;13.408;2023-02-15T00:46:40;41.80;;;17.80;;
1412;SDS011;701;52.526;13.408;2023-02-15T00:49:08;44.03;;;17.35;;
1412;SDS011;701;52.526;13.408;2023-02-15T00:51:35;41.63;;;18.30;;
1412;SDS011;701;52.526;13.408;2023-02-15T00:54:01;38.75;;;16.67;;
1412;SDS011;701;52.526;13.408;2023-02-15T00:56:28;41.43;;;17.80;;
1412;SDS011;701;52.526;13.408;2023-02-15T00:58:54;49.38;;;17.17;;
1412;SDS011;701;52.526;13.408;2023-02-15T01:01:20;38.17;;;17.35;;
1412;SDS011;701;52.526;13.408;2023-02-15T01:03:46;45.10;;;18.67;;
1412;SDS011;701;52.526;13.408;2023-02-15T01:06:12;42.73;;;17.47;;
1412;SDS011;701;52.526;13.408;2023-02-15T01:08:40;43.80;;;18.05;;
1412;SDS011;701;52.526;13.408;2023-02-15T01:11:08;41.88;;;17.13;;
1412;SDS011;701;52.526;13.408;2023-02-15T01:13:35;41.85;;;17.73;;
1412;SDS011;701;52.526;13.408;2023-02-15T01:16:01;42.10;;;17.70;;
1412;SDS011;701;52.526;13.408;2023-02-15T01:18:27;43.80;;;18.48;;
1412;SDS011;701;52.526;13.408;2023-02-15T01:20:55;44.75;;;17.83;;
1412;SDS011;701;52.526;13.408;2023-02-15T01:23:20;46.67;;;17.70;;
1412;SDS011;701;52.526;13.408;2023-02-15T01:25:46;43.17;;;17.75;;
1412;SDS011;701;52.526;13.408;2023-02-15T01:28:12;45.47;;;17.93;;
1412;SDS011;701;52.526;13.408;2023-02-15T01:30:38;42.03;;;18.40;;
1412;SDS011;701;52.526;13.408;2023-02-15T01:33:03;40.53;;;17.42;;
1412;SDS011;701;52.526;13.408;2023-02-15T01:35:30;44.07;;;17.77;;
1412;SDS011;701;52.526;13.408;2023-02-15T01:37:56;42.63;;;17.85;;
1412;SDS011;701;52.526;13.408;2023-02-15T01:40:21;45.20;;;17.63;;
1412;SDS011;701;52.526;13.408;2023-02-15T01:42:54;44.80;;;18.10;;
1412;SDS011;701;52.526;13.408;2023-02-15T01:45:22;47.33;;;18.60;;
1412;SDS011;701;52.526;13.408;2023-02-15T01:50:36;42.10;;;17.52;;
1412;SDS011;701;52.526;13.408;2023-02-15T01:55:39;44.83;;;18.13;;
1412;SDS011;701;52.526;13.408;2023-02-15T01:58:18;46.83;;;19.80;;
1412;SDS011;701;52.526;13.408;2023-02-15T02:00:46;43.17;;;18.13;;
1412;SDS011;701;52.526;13.408;2023-02-15T02:03:18;50.30;;;19.52;;
1412;SDS011;701;52.526;13.408;2023-02-15T02:06:03;48.07;;;19.97;;
1412;SDS011;701;52.526;13.408;2023-02-15T02:08:30;48.05;;;19.83;;
1412;SDS011;701;52.526;13.408;2023-02-15T02:10:57;49.38;;;18.98;;
1412;SDS011;701;52.526;13.408;2023-02-15T02:13:22;49.08;;;19.38;;
1412;SDS011;701;52.526;13.408;2023-02-15T02:15:52;50.05;;;19.73;;
1412;SDS011;701;52.526;13.408;2023-02-15T02:26:46;50.72;;;20.13;;
1412;SDS011;701;52.526;13.408;2023-02-15T02:42:43;54.80;;;21.67;;
1412;SDS011;701;52.526;13.408;2023-02-15T02:45:20;53.72;;;20.75;;
1412;SDS011;701;52.526;13.408;2023-02-15T02:48:08;53.25;;;21.42;;
1412;SDS011;701;52.526;13.408;2023-02-15T02:50:40;51.67;;;20.33;;
1412;SDS011;701;52.526;13.408;2023-02-15T02:53:06;55.33;;;20.58;;
1412;SDS011;701;52.526;13.408;2023-02-15T02:55:35;56.95;;;22.15;;
1412;SDS011;701;52.526;13.408;2023-02-15T03:01:27;60.40;;;22.63;;
1412;SDS011;701;52.526;13.408;2023-02-15T03:04:07;56.70;;;21.40;;
1412;SDS011;701;52.526;13.408;2023-02-15T03:09:42;60.20;;;22.48;;
1412;SDS011;701;52.526;13.408;2023-02-15T03:12:17;66.53;;;23.25;;
1412;SDS011;701;52.526;13.408;2023-02-15T03:14:48;59.85;;;21.83;;
1412;SDS011;701;52.526;13.408;2023-02-15T03:17:26;64.17;;;22.43;;
1412;SDS011;701;52.526;13.408;2023-02-15T03:19:55;62.47;;;23.10;;
1412;SDS011;701;52.526;13.408;2023-02-15T03:22:26;69.22;;;24.15;;
1412;SDS011;701;52.526;13.408;2023-02-15T03:25:14;67.40;;;24.55;;
1412;SDS011;701;52.526;13.408;2023-02-15T03:27:52;77.85;;;26.17;;
1412;SDS011;701;52.526;13.408;2023-02-15T03:30:21;70.47;;;24.40;;
1412;SDS011;701;52.526;13.408;2023-02-15T03:32:49;70.35;;;24.67;;
1412;SDS011;701;52.526;13.408;2023-02-15T03:35:16;65.20;;;24.65;;
1412;SDS011;701;52.526;13.408;2023-02-15T03:37:44;72.53;;;23.77;;
1412;SDS011;701;52.526;13.408;2023-02-15T03:40:19;70.47;;;24.08;;
1412;SDS011;701;52.526;13.408;2023-02-15T03:43:27;64.27;;;23.87;;
1412;SDS011;701;52.526;13.408;2023-02-15T03:46:29;68.05;;;24.80;;
1412;SDS011;701;52.526;13.408;2023-02-15T03:49:00;63.63;;;23.58;;
1412;SDS011;701;52.526;13.408;2023-02-15T03:51:31;66.65;;;24.13;;
1412;SDS011;701;52.526;13.408;2023-02-15T03:54:04;68.35;;;25.33;;
1412;SDS011;701;52.526;13.408;2023-02-15T03:56:36;71.40;;;24.30;;
1412;SDS011;701;52.526;13.408;2023-02-15T03:59:05;67.35;;;24.77;;
1412;SDS011;701;52.526;13.408;2023-02-15T04:07:00;71.53;;;26.53;;
1412;SDS011;701;52.526;13.408;2023-02-15T04:09:26;72.57;;;26.73;;
1412;SDS011;701;52.526;13.408;2023-02-15T04:12:11;69.03;;;24.02;;
1412;SDS011;701;52.526;13.408;2023-02-15T04:14:36;68.17;;;24.63;;
1412;SDS011;701;52.526;13.408;2023-02-15T04:17:21;68.85;;;23.88;;
1412;SDS011;701;52.526;13.408;2023-02-15T04:19:47;70.57;;;24.55;;
1412;SDS011;701;52.526;13.408;2023-02-15T04:22:31;67.05;;;25.02;;
1412;SDS011;701;52.526;13.408;2023-02-15T04:25:15;69.20;;;23.47;;
1412;SDS011;701;52.526;13.408;2023-02-15T04:27:46;69.85;;;24.08;;
1412;SDS011;701;52.526;13.408;2023-02-15T04:30:15;62.17;;;22.50;;
1412;SDS011;701;52.526;13.408;2023-02-15T04:32:43;61.63;;;24.20;;
1412;SDS011;701;52.526;13.408;2023-02-15T04:35:09;67.43;;;23.77;;
1412;SDS011;701;52.526;13.408;2023-02-15T04:37:35;63.47;;;23.27;;
1412;SDS011;701;52.526;13.408;2023-02-15T04:40:01;65.07;;;23.33;;
1412;SDS011;701;52.526;13.408;2023-02-15T04:42:27;69.13;;;24.63;;
1412;SDS011;701;52.526;13.408;2023-02-15T04:44:53;73.38;;;24.88;;
1412;SDS011;701;52.526;13.408;2023-02-15T04:47:19;66.90;;;23.10;;
1412;SDS011;701;52.526;13.408;2023-02-15T04:49:45;70.67;;;24.40;;
1412;SDS011;701;52.526;13.408;2023-02-15T04:52:11;66.25;;;22.92;;
1412;SDS011;701;52.526;13.408;2023-02-15T04:54:37;62.67;;;23.25;;
1412;SDS011;701;52.526;13.408;2023-02-15T04:57:03;69.83;;;23.40;;
1412;SDS011;701;52.526;13.408;2023-02-15T04:59:29;67.22;;;23.88;;
1412;SDS011;701;52.526;13.408;2023-02-15T05:01:55;65.38;;;23.50;;
1412;SDS011;701;52.526;13.408;2023-02-15T05:04:21;61.73;;;23.43;;
1412;SDS011;701;52.526;13.408;2023-02-15T05:06:46;63.85;;;22.90;;
1412;SDS011;701;52.526;13.408;2023-02-15T05:09:12;67.67;;;22.87;;
1412;SDS011;701;52.526;13.408;2023-02-15T05:11:38;65.45;;;22.98;;
1412;SDS011;701;52.526;13.408;2023-02-15T05:14:04;72.37;;;23.57;;
1412;SDS011;701;52.526;13.408;2023-02-15T05:16:30;66.07;;;23.50;;
1412;SDS011;701;52.526;13.408;2023-02-15T05:18:56;64.15;;;24.58;;
1412;SDS011;701;52.526;13.408;2023-02-15T05:21:22;62.28;;;24.33;;
1412;SDS011;701;52.526;13.408;2023-02-15T05:23:48;64.88;;;23.02;;
1412;SDS011;701;52.526;13.408;2023-02-15T05:26:17;67.25;;;22.80;;
1412;SDS011;701;52.526;13.408;2023-02-15T05:29:03;68.60;;;23.33;;
1412;SDS011;701;52.526;13.408;2023-02-15T05:31:30;63.70;;;21.40;;
1412;SDS011;701;52.526;13.408;2023-02-15T05:33:56;63.92;;;22.45;;
1412;SDS011;701;52.526;13.408;2023-02-15T05:36:22;68.90;;;23.77;;
1412;SDS011;701;52.526;13.408;2023-02-15T05:38:48;66.67;;;22.60;;
1412;SDS011;701;52.526;13.408;2023-02-15T05:41:14;63.58;;;22.40;;
1412;SDS011;701;52.526;13.408;2023-02-15T05:43:40;70.28;;;23.50;;
1412;SDS011;701;52.526;13.408;2023-02-15T05:46:06;70.97;;;24.50;;
1412;SDS011;701;52.526;13.408;2023-02-15T05:48:33;73.65;;;25.05;;
1412;SDS011;701;52.526;13.408;2023-02-15T05:51:00;64.97;;;22.27;;
1412;SDS011;701;52.526;13.408;2023-02-15T05:53:31;69.97;;;23.42;;
1412;SDS011;701;52.526;13.408;2023-02-15T05:55:58;69.13;;;23.30;;
1412;SDS011;701;52.526;13.408;2023-02-15T05:58:28;69.00;;;24.02;;
1412;SDS011;701;52.526;13.408;2023-02-15T06:00:56;70.15;;;23.30;;
1412;SDS011;701;52.526;13.408;2023-02-15T06:03:22;70.90;;;23.80;;
1412;SDS011;701;52.526;13.408;2023-02-15T06:05:50;78.43;;;25.43;;
1412;SDS011;701;52.526;13.408;2023-02-15T06:08:17;82.38;;;25.20;;
1412;SDS011;701;52.526;13.408;2023-02-15T06:10:43;77.03;;;25.60;;
1412;SDS011;701;52.526;13.408;2023-02-15T06:13:10;77.10;;;26.15;;
1412;SDS011;701;52.526;13.408;2023-02-15T06:15:35;86.90;;;28.60;;
1412;SDS011;701;52.526;13.408;2023-02-15T06:18:01;72.55;;;24.95;;
1412;SDS011;701;52.526;13.408;2023-02-15T06:20:27;67.33;;;23.83;;
1412;SDS011;701;52.526;13.408;2023-02-15T06:22:53;74.43;;;23.88;;
1412;SDS011;701;52.526;13.408;2023-02-15T06:25:19;76.63;;;25.73;;
1412;SDS011;701;52.526;13.408;2023-02-15T06:27:45;73.95;;;24.00;;
1412;SDS011;701;52.526;13.408;2023-02-15T06:30:10;75.97;;;23.93;;
1412;SDS011;701;52.526;13.408;2023-02-15T06:32:37;74.68;;;24.75;;
1412;SDS011;701;52.526;13.408;2023-02-15T06:35:03;75.60;;;24.30;;
1412;SDS011;701;52.526;13.408;2023-02-15T06:37:29;79.03;;;24.27;;
1412;SDS011;701;52.526;13.408;2023-02-15T06:39:55;74.68;;;23.35;;
1412;SDS011;701;52.526;13.408;2023-02-15T06:42:22;79.05;;;25.52;;
1412;SDS011;701;52.526;13.408;2023-02-15T06:44:47;90.40;;;25.47;;
1412;SDS011;701;52.526;13.408;2023-02-15T06:47:13;77.30;;;25.67;;
1412;SDS011;701;52.526;13.408;2023-02-15T06:49:39;78.17;;;23.87;;
1412;SDS011;701;52.526;13.408;2023-02-15T06:52:05;73.80;;;24.40;;
1412;SDS011;701;52.526;13.408;2023-02-15T06:54:30;79.17;;;24.47;;
1412;SDS011;701;52.526;13.408;2023-02-15T06:56:56;72.13;;;23.25;;
1412;SDS011;701;52.526;13.408;2023-02-15T06:59:22;79.40;;;24.08;;
1412;SDS011;701;52.526;13.408;2023-02-15T07:01:49;80.13;;;25.60;;
1412;SDS011;701;52.526;13.408;2023-02-15T07:04:15;75.32;;;24.70;;
1412;SDS011;701;52.526;13.408;2023-02-15T07:06:41;79.40;;;24.65;;
1412;SDS011;701;52.526;13.408;2023-02-15T07:09:07;75.10;;;25.70;;
1412;SDS011;701;52.526;13.408;2023-02-15T07:11:33;72.30;;;24.40;;
1412;SDS011;701;52.526;13.408;2023-02-15T07:14:17;67.25;;;22.85;;
1412;SDS011;701;52.526;13.408;2023-02-15T07:16:43;79.75;;;25.00;;
1412;SDS011;701;52.526;13.408;2023-02-15T07:19:09;79.20;;;25.48;;
1412;SDS011;701;52.526;13.408;2023-02-15T07:21:35;86.78;;;25.40;;
1412;SDS011;701;52.526;13.408;2023-02-15T07:24:01;80.20;;;25.27;;
1412;SDS011;701;52.526;13.408;2023-02-15T07:26:27;79.15;;;25.45;;
1412;SDS011;701;52.526;13.408;2023-02-15T07:28:52;80.07;;;25.60;;
1412;SDS011;701;52.526;13.408;2023-02-15T07:31:18;86.17;;;25.63;;
1412;SDS011;701;52.526;13.408;2023-02-15T07:33:44;73.95;;;24.85;;
1412;SDS011;701;52.526;13.408;2023-02-15T07:36:10;68.03;;;23.03;;
1412;SDS011;701;52.526;13.408;2023-02-15T07:38:37;70.78;;;23.95;;
1412;SDS011;701;52.526;13.408;2023-02-15T07:41:06;76.68;;;24.00;;
1412;SDS011;701;52.526;13.408;2023-02-15T07:43:37;75.82;;;24.10;;
1412;SDS011;701;52.526;13.408;2023-02-15T07:46:05;73.67;;;23.53;;
1412;SDS011;701;52.526;13.408;2023-02-15T07:48:33;76.45;;;24.63;;
1412;SDS011;701;52.526;13.408;2023-02-15T07:51:03;72.35;;;25.27;;
1412;SDS011;701;52.526;13.408;2023-02-15T07:53:30;68.75;;;23.77;;
1412;SDS011;701;52.526;13.408;2023-02-15T07:55:59;63.45;;;22.92;;
1412;SDS011;701;52.526;13.408;2023-02-15T07:58:26;69.10;;;23.50;;
1412;SDS011;701;52.526;13.408;2023-02-15T08:01:12;72.75;;;24.05;;
1412;SDS011;701;52.526;13.408;2023-02-15T08:03:39;73.18;;;25.50;;
1412;SDS011;701;52.526;13.408;2023-02-15T08:06:05;68.65;;;24.77;;
1412;SDS011;701;52.526;13.408;2023-02-15T08:08:33;66.83;;;23.13;;
1412;SDS011;701;52.526;13.408;2023-02-15T08:11:04;72.32;;;24.50;;
1412;SDS011;701;52.526;13.408;2023-02-15T08:13:54;64.78;;;22.77;;
1412;SDS011;701;52.526;13.408;2023-02-15T08:18:56;65.13;;;24.85;;
1412;SDS011;701;52.526;13.408;2023-02-15T08:21:25;76.63;;;24.70;;
1412;SDS011;701;52.526;13.408;2023-02-15T08:23:53;73.07;;;24.58;;
1412;SDS011;701;52.526;13.408;2023-02-15T08:26:19;73.97;;;25.00;;
1412;SDS011;701;52.526;13.408;2023-02-15T08:28:46;81.95;;;25.38;;
1412;SDS011;701;52.526;13.408;2023-02-15T08:31:12;66.13;;;23.30;;
1412;SDS011;701;52.526;13.408;2023-02-15T08:33:39;65.80;;;23.45;;
1412;SDS011;701;52.526;13.408;2023-02-15T08:36:07;64.25;;;22.52;;
1412;SDS011;701;52.526;13.408;2023-02-15T08:38:34;72.60;;;23.55;;
1412;SDS011;701;52.526;13.408;2023-02-15T08:41:10;70.40;;;24.33;;
1412;SDS011;701;52.526;13.408;2023-02-15T08:43:35;68.82;;;23.75;;
1412;SDS011;701;52.526;13.408;2023-02-15T08:46:01;61.53;;;22.75;;
1412;SDS011;701;52.526;13.408;2023-02-15T08:48:27;67.57;;;22.83;;
1412;SDS011;701;52.526;13.408;2023-02-15T08:50:53;64.47;;;23.83;;
1412;SDS011;701;52.526;13.408;2023-02-15T08:53:18;73.03;;;22.75;;
1412;SDS011;701;52.526;13.408;2023-02-15T08:55:46;67.03;;;23.00;;
1412;SDS011;701;52.526;13.408;2023-02-15T08:58:20;64.20;;;23.20;;
1412;SDS011;701;52.526;13.408;2023-02-15T09:00:45;59.38;;;22.95;;
1412;SDS011;701;52.526;13.408;2023-02-15T09:03:11;63.27;;;21.93;;
1412;SDS011;701;52.526;13.408;2023-02-15T09:05:37;60.58;;;22.38;;
1412;SDS011;701;52.526;13.408;2023-02-15T09:08:02;58.17;;;22.10;;
1412;SDS011;701;52.526;13.408;2023-02-15T09:10:28;53.70;;;21.05;;
1412;SDS011;701;52.526;13.408;2023-02-15T09:12:54;59.78;;;21.60;;
1412;SDS011;701;52.526;13.408;2023-02-15T09:15:19;51.53;;;20.83;;
1412;SDS011;701;52.526;13.408;2023-02-15T09:17:45;60.13;;;22.08;;
1412;SDS011;701;52.526;13.408;2023-02-15T09:20:11;51.17;;;20.70;;
1412;SDS011;701;52.526;13.408;2023-02-15T09:22:37;46.47;;;19.23;;
1412;SDS011;701;52.526;13.408;2023-02-15T09:25:03;45.63;;;19.23;;
1412;SDS011;701;52.526;13.408;2023-02-15T09:27:29;61.35;;;24.60;;
1412;SDS011;701;52.526;13.408;2023-02-15T09:29:55;46.23;;;19.93;;
1412;SDS011;701;52.526;13.408;2023-02-15T09:32:21;48.53;;;19.42;;
1412;SDS011;701;52.526;13.408;2023-02-15T09:34:47;47.63;;;20.50;;
1412;SDS011;701;52.526;13.408;2023-02-15T09:37:13;48.30;;;19.93;;
1412;SDS011;701;52.526;13.408;2023-02-15T09:39:39;37.15;;;17.17;;
1412;SDS011;701;52.526;13.408;2023-02-15T09:58:49;37.20;;;16.08;;
1412;SDS011;701;52.526;13.408;2023-02-15T10:04:22;35.63;;;15.57;;
1412;SDS011;701;52.526;13.408;2023-02-15T10:18:18;41.30;;;17.67;;
1412;SDS011;701;52.526;13.408;2023-02-15T10:34:15;39.40;;;16.83;;
1412;SDS011;701;52.526;13.408;2023-02-15T10:42:06;38.72;;;17.38;;
1412;SDS011;701;52.526;13.408;2023-02-15T10:44:51;39.83;;;16.95;;
1412;SDS011;701;52.526;13.408;2023-02-15T10:50:29;40.25;;;17.85;;
1412;SDS011;701;52.526;13.408;2023-02-15T10:55:50;38.38;;;16.42;;
1412;SDS011;701;52.526;13.408;2023-02-15T10:58:42;39.25;;;17.65;;
1412;SDS011;701;52.526;13.408;2023-02-15T11:02:14;34.70;;;16.30;;
1412;SDS011;701;52.526;13.408;2023-02-15T11:09:44;35.35;;;17.25;;
1412;SDS011;701;52.526;13.408;2023-02-15T11:12:14;35.10;;;17.27;;
1412;SDS011;701;52.526;13.408;2023-02-15T11:14:46;39.28;;;16.85;;
1412;SDS011;701;52.526;13.408;2023-02-15T11:17:16;41.65;;;18.13;;
1412;SDS011;701;52.526;13.408;2023-02-15T11:22:28;38.67;;;17.13;;
1412;SDS011;701;52.526;13.408;2023-02-15T11:24:56;39.47;;;17.58;;
1412;SDS011;701;52.526;13.408;2023-02-15T11:27:25;36.67;;;18.27;;
1412;SDS011;701;52.526;13.408;2023-02-15T11:30:01;41.38;;;17.55;;
1412;SDS011;701;52.526;13.408;2023-02-15T11:32:39;37.58;;;18.20;;
1412;SDS011;701;52.526;13.408;2023-02-15T11:37:54;38.28;;;17.65;;
1412;SDS011;701;52.526;13.408;2023-02-15T11:43:20;37.78;;;17.50;;
1412;SDS011;701;52.526;13.408;2023-02-15T11:45:57;40.53;;;19.75;;
1412;SDS011;701;52.526;13.408;2023-02-15T11:48:23;41.35;;;15.65;;
1412;SDS011;701;52.526;13.408;2023-02-15T11:50:48;34.17;;;15.98;;
1412;SDS011;701;52.526;13.408;2023-02-15T11:53:16;39.40;;;19.27;;
1412;SDS011;701;52.526;13.408;2023-02-15T11:55:44;39.72;;;19.50;;
1412;SDS011;701;52.526;13.408;2023-02-15T11:58:29;33.33;;;16.67;;
1412;SDS011;701;52.526;13.408;2023-02-15T12:00:58;32.73;;;16.40;;
1412;SDS011;701;52.526;13.408;2023-02-15T12:04:40;29.77;;;15.40;;
1412;SDS011;701;52.526;13.408;2023-02-15T12:12:36;42.88;;;19.02;;
1412;SDS011;701;52.526;13.408;2023-02-15T12:15:10;38.77;;;16.93;;
1412;SDS011;701;52.526;13.408;2023-02-15T12:17:52;35.05;;;16.15;;
1412;SDS011;701;52.526;13.408;2023-02-15T12:22:59;40.22;;;17.10;;
1412;SDS011;701;52.526;13.408;2023-02-15T12:28:29;36.03;;;16.57;;
1412;SDS011;701;52.526;13.408;2023-02-15T12:31:00;37.55;;;15.48;;
1412;SDS011;701;52.526;13.408;2023-02-15T12:33:30;36.38;;;16.30;;
1412;SDS011;701;52.526;13.408;2023-02-15T12:41:37;37.90;;;16.03;;
1412;SDS011;701;52.526;13.408;2023-02-15T12:44:17;34.10;;;16.33;;
1412;SDS011;701;52.526;13.408;2023-02-15T12:49:36;37.03;;;16.30;;
1412;SDS011;701;52.526;13.408;2023-02-15T12:52:13;33.35;;;16.33;;
1412;SDS011;701;52.526;13.408;2023-02-15T12:54:49;38.47;;;15.57;;
1412;SDS011;701;52.526;13.408;2023-02-15T12:59:51;32.00;;;15.85;;
1412;SDS011;701;52.526;13.408;2023-02-15T13:02:21;30.60;;;14.93;;
1412;SDS011;701;52.526;13.408;2023-02-15T13:04:56;37.20;;;14.98;;
1412;SDS011;701;52.526;13.408;2023-02-15T13:07:32;35.70;;;15.80;;
1412;SDS011;701;52.526;13.408;2023-02-15T13:09:58;38.47;;;16.27;;
1412;SDS011;701;52.526;13.408;2023-02-15T13:12:28;38.90;;;16.83;;
1412;SDS011;701;52.526;13.408;2023-02-15T13:14:58;36.27;;;15.77;;
1412;SDS011;701;52.526;13.408;2023-02-15T13:17:29;35.42;;;16.20;;
1412;SDS011;701;52.526;13.408;2023-02-15T13:20:39;38.53;;;17.08;;
1412;SDS011;701;52.526;13.408;2023-02-15T13:22:50;41.40;;;16.70;;
1412;SDS011;701;52.526;13.408;2023-02-15T13:25:22;37.05;;;16.85;;
1412;SDS011;701;52.526;13.408;2023-02-15T13:28:03;37.80;;;16.13;;
1412;SDS011;701;52.526;13.408;2023-02-15T13:30:31;37.25;;;15.27;;
1412;SDS011;701;52.526;13.408;2023-02-15T13:33:10;35.60;;;16.50;;
1412;SDS011;701;52.526;13.408;2023-02-15T13:35:42;31.38;;;14.75;;
1412;SDS011;701;52.526;13.408;2023-02-15T13:38:21;31.40;;;15.18;;
1412;SDS011;701;52.526;13.408;2023-02-15T13:41:16;34.00;;;16.00;;
1412;SDS011;701;52.526;13.408;2023-02-15T13:57:25;33.88;;;15.30;;
1412;SDS011;701;52.526;13.408;2023-02-15T14:11:20;29.83;;;14.82;;
1412;SDS011;701;52.526;13.408;2023-02-15T14:21:43;33.07;;;14.20;;
1412;SDS011;701;52.526;13.408;2023-02-15T14:29:37;28.73;;;14.10;;
1412;SDS011;701;52.526;13.408;2023-02-15T14:32:11;29.30;;;14.20;;
1412;SDS011;701;52.526;13.408;2023-02-15T14:34:50;36.20;;;14.60;;
1412;SDS011;701;52.526;13.408;2023-02-15T14:37:36;36.08;;;15.05;;
1412;SDS011;701;52.526;13.408;2023-02-15T14:46:34;31.80;;;14.27;;
1412;SDS011;701;52.526;13.408;2023-02-15T14:49:22;29.03;;;12.73;;
1412;SDS011;701;52.526;13.408;2023-02-15T14:59:26;42.63;;;20.23;;
1412;SDS011;701;52.526;13.408;2023-02-15T15:02:00;49.33;;;25.38;;
1412;SDS011;701;52.526;13.408;2023-02-15T15:04:35;37.58;;;16.63;;
1412;SDS011;701;52.526;13.408;2023-02-15T15:14:50;31.27;;;15.40;;
1412;SDS011;701;52.526;13.408;2023-02-15T15:22:50;32.92;;;14.48;;
1412;SDS011;701;52.526;13.408;2023-02-15T15:25:40;29.20;;;13.80;;
1412;SDS011;701;52.526;13.408;2023-02-15T15:31:16;34.20;;;14.47;;
1412;SDS011;701;52.526;13.408;2023-02-15T15:45:47;30.97;;;13.77;;
1412;SDS011;701;52.526;13.408;2023-02-15T15:48:29;27.98;;;13.70;;
1412;SDS011;701;52.526;13.408;2023-02-15T15:50:58;30.85;;;13.77;;
1412;SDS011;701;52.526;13.408;2023-02-15T15:53:27;28.77;;;12.90;;
1412;SDS011;701;52.526;13.408;2023-02-15T15:56:01;30.13;;;13.40;;
1412;SDS011;701;52.526;13.408;2023-02-15T15:58:30;30.57;;;14.30;;
1412;SDS011;701;52.526;13.408;2023-02-15T16:01:08;30.45;;;13.88;;
1412;SDS011;701;52.526;13.408;2023-02-15T16:03:38;34.25;;;14.00;;
1412;SDS011;701;52.526;13.408;2023-02-15T16:06:14;34.08;;;14.70;;
1412;SDS011;701;52.526;13.408;2023-02-15T16:08:52;38.55;;;18.45;;
1412;SDS011;701;52.526;13.408;2023-02-15T16:11:25;34.63;;;15.40;;
1412;SDS011;701;52.526;13.408;2023-02-15T16:13:54;33.33;;;14.68;;
1412;SDS011;701;52.526;13.408;2023-02-15T16:16:25;37.17;;;15.73;;
1412;SDS011;701;52.526;13.408;2023-02-15T16:18:53;32.72;;;15.43;;
1412;SDS011;701;52.526;13.408;2023-02-15T16:21:25;34.50;;;15.93;;
1412;SDS011;701;52.526;13.408;2023-02-15T16:29:26;33.95;;;15.27;;
1412;SDS011;701;52.526;13.408;2023-02-15T16:32:04;35.95;;;14.85;;
1412;SDS011;701;52.526;13.408;2023-02-15T16:34:30;31.40;;;14.90;;
1412;SDS011;701;52.526;13.408;2023-02-15T16:37:16;37.05;;;14.77;;
1412;SDS011;701;52.526;13.408;2023-02-15T16:39:44;30.40;;;14.38;;
1412;SDS011;701;52.526;13.408;2023-02-15T16:42:13;35.25;;;14.48;;
1412;SDS011;701;52.526;13.408;2023-02-15T16:44:41;32.60;;;14.70;;
1412;SDS011;701;52.526;13.408;2023-02-15T16:47:16;33.17;;;14.50;;
1412;SDS011;701;52.526;13.408;2023-02-15T16:49:45;37.53;;;15.95;;
1412;SDS011;701;52.526;13.408;2023-02-15T16:52:23;36.83;;;15.18;;
1412;SDS011;701;52.526;13.408;2023-02-15T16:54:52;34.08;;;16.13;;
1412;SDS011;701;52.526;13.408;2023-02-15T16:57:21;34.83;;;15.02;;
1412;SDS011;701;52.526;13.408;2023-02-15T16:59:49;39.63;;;15.65;;
1412;SDS011;701;52.526;13.408;2023-02-15T17:02:19;36.42;;;15.60;;
1412;SDS011;701;52.526;13.408;2023-02-15T17:07:49;40.40;;;15.25;;
1412;SDS011;701;52.526;13.408;2023-02-15T17:12:54;36.42;;;14.15;;
1412;SDS011;701;52.526;13.408;2023-02-15T17:15:25;35.65;;;16.35;;
1412;SDS011;701;52.526;13.408;2023-02-15T17:17:57;37.08;;;15.57;;
1412;SDS011;701;52.526;13.408;2023-02-15T17:20:26;39.83;;;16.73;;
1412;SDS011;701;52.526;13.408;2023-02-15T17:22:53;35.53;;;16.13;;
1412;SDS011;701;52.526;13.408;2023-02-15T17:25:21;32.92;;;15.38;;
1412;SDS011;701;52.526;13.408;2023-02-15T17:27:54;35.65;;;14.55;;
1412;SDS011;701;52.526;13.408;2023-02-15T17:30:31;34.85;;;15.23;;
1412;SDS011;701;52.526;13.408;2023-02-15T17:33:00;43.08;;;15.45;;
1412;SDS011;701;52.526;13.408;2023-02-15T17:35:30;29.43;;;13.70;;
1412;SDS011;701;52.526;13.408;2023-02-15T17:38:02;32.05;;;13.27;;
1412;SDS011;701;52.526;13.408;2023-02-15T17:40:31;39.45;;;14.68;;
1412;SDS011;701;52.526;13.408;2023-02-15T17:42:58;34.17;;;14.57;;
1412;SDS011;701;52.526;13.408;2023-02-15T17:45:25;34.28;;;15.00;;
1412;SDS011;701;52.526;13.408;2023-02-15T17:47:57;33.97;;;14.80;;
1412;SDS011;701;52.526;13.408;2023-02-15T17:50:24;35.95;;;16.13;;
1412;SDS011;701;52.526;13.408;2023-02-15T17:52:52;34.13;;;15.07;;
1412;SDS011;701;52.526;13.408;2023-02-15T17:55:20;34.05;;;17.02;;
1412;SDS011;701;52.526;13.408;2023-02-15T17:58:00;36.08;;;14.35;;
1412;SDS011;701;52.526;13.408;2023-02-15T18:00:29;41.67;;;16.90;;
1412;SDS011;701;52.526;13.408;2023-02-15T18:03:14;32.40;;;13.90;;
1412;SDS011;701;52.526;13.408;2023-02-15T18:05:58;31.50;;;15.00;;
1412;SDS011;701;52.526;13.408;2023-02-15T18:08:43;31.05;;;13.85;;
1412;SDS011;701;52.526;13.408;2023-02-15T18:11:28;31.83;;;15.50;;
1412;SDS011;701;52.526;13.408;2023-02-15T18:14:07;32.10;;;15.10;;
1412;SDS011;701;52.526;13.408;2023-02-15T18:16:35;36.35;;;15.75;;
1412;SDS011;701;52.526;13.408;2023-02-15T18:19:05;36.95;;;14.52;;
1412;SDS011;701;52.526;13.408;2023-02-15T18:21:36;34.80;;;15.75;;
1412;SDS011;701;52.526;13.408;2023-02-15T18:24:01;33.87;;;14.93;;
1412;SDS011;701;52.526;13.408;2023-02-15T18:26:28;38.53;;;16.20;;
1412;SDS011;701;52.526;13.408;2023-02-15T18:28:54;42.42;;;16.95;;
1412;SDS011;701;52.526;13.408;2023-02-15T18:31:20;39.23;;;17.17;;
1412;SDS011;701;52.526;13.408;2023-02-15T18:33:47;40.38;;;16.98;;
1412;SDS011;701;52.526;13.408;2023-02-15T18:36:38;40.60;;;17.63;;
1412;SDS011;701;52.526;13.408;2023-02-15T18:39:19;36.97;;;17.08;;
1412;SDS011;701;52.526;13.408;2023-02-15T18:41:58;38.37;;;17.10;;
1412;SDS011;701;52.526;13.408;2023-02-15T18:44:24;42.38;;;17.85;;
1412;SDS011;701;52.526;13.408;2023-02-15T18:46:50;35.35;;;17.95;;
1412;SDS011;701;52.526;13.408;2023-02-15T18:49:16;38.73;;;17.13;;
1412;SDS011;701;52.526;13.408;2023-02-15T18:51:42;49.15;;;19.50;;